sensor_id;sensor_type;location;lat;lon;timestamp;temperature;humidity
45715;DHT22;31430;61.646;24.704;2022-11-15T00:00:55;5.30;99.90
45715;DHT22;31430;61.646;24.704;2022-11-15T00:03:22;5.10;99.90
45715;DHT22;31430;61.646;24.704;2022-11-15T00:05:48;5.00;99.90
45715;DHT22;31430;61.646;24.704;2022-11-15T00:08:14;4.80;99.90
45715;DHT22;31430;61.646;24.704;2022-11-15T00:10:40;4.80;99.90
45715;DHT22;31430;61.646;24.704;2022-11-15T00:13:12;4.70;99.90
45715;DHT22;31430;61.646;24.704;2022-11-15T00:15:40;4.60;99.90
45715;DHT22;31430;61.646;24.704;2022-11-15T00:18:09;4.50;99.90
45715;DHT22;31430;61.646;24.704;2022-11-15T00:20:37;4.50;99.90
45715;DHT22;31430;61.646;24.704;2022-11-15T00:23:03;4.50;99.90
45715;DHT22;31430;61.646;24.704;2022-11-15T00:25:29;4.50;99.90
45715;DHT22;31430;61.646;24.704;2022-11-15T00:27:58;4.50;99.90
45715;DHT22;31430;61.646;24.704;2022-11-15T00:30:24;4.40;99.90
45715;DHT22;31430;61.646;24.704;2022-11-15T00:32:50;4.40;99.90
45715;DHT22;31430;61.646;24.704;2022-11-15T00:35:16;4.40;99.90
45715;DHT22;31430;61.646;24.704;2022-11-15T00:37:42;4.40;99.90
45715;DHT22;31430;61.646;24.704;2022-11-15T00:40:09;4.30;99.90
45715;DHT22;31430;61.646;24.704;2022-11-15T00:42:34;4.30;99.90
45715;DHT22;31430;61.646;24.704;2022-11-15T00:45:00;4.20;99.90
45715;DHT22;31430;61.646;24.704;2022-11-15T00:47:26;4.20;99.90
45715;DHT22;31430;61.646;24.704;2022-11-15T00:49:51;4.10;99.90
45715;DHT22;31430;61.646;24.704;2022-11-15T00:52:17;4.10;99.90
45715;DHT22;31430;61.646;24.704;2022-11-15T00:54:42;4.10;99.90
45715;DHT22;31430;61.646;24.704;2022-11-15T00:57:08;4.10;99.90
45715;DHT22;31430;61.646;24.704;2022-11-15T00:59:34;4.10;99.90
45715;DHT22;31430;61.646;24.704;2022-11-15T01:01:59;4.00;99.90
45715;DHT22;31430;61.646;24.704;2022-11-15T01:04:25;4.00;99.90
45715;DHT22;31430;61.646;24.704;2022-11-15T01:06:51;4.00;99.90
45715;DHT22;31430;61.646;24.704;2022-11-15T01:09:16;4.00;99.90
45715;DHT22;31430;61.646;24.704;2022-11-15T01:11:42;3.90;99.90
45715;DHT22;31430;61.646;24.704;2022-11-15T01:14:08;3.90;99.90
45715;DHT22;31430;61.646;24.704;2022-11-15T01:16:33;3.80;99.90
45715;DHT22;31430;61.646;24.704;2022-11-15T01:18:59;3.80;99.90
45715;DHT22;31430;61.646;24.704;2022-11-15T01:21:25;3.80;99.90
45715;DHT22;31430;61.646;24.704;2022-11-15T01:23:55;3.80;99.90
45715;DHT22;31430;61.646;24.704;2022-11-15T01:26:22;3.80;99.90
45715;DHT22;31430;61.646;24.704;2022-11-15T01:28:48;3.70;99.90
45715;DHT22;31430;61.646;24.704;2022-11-15T01:31:16;3.70;99.90
45715;DHT22;31430;61.646;24.704;2022-11-15T01:33:42;3.70;99.90
45715;DHT22;31430;61.646;24.704;2022-11-15T01:36:10;3.70;99.90
45715;DHT22;31430;61.646;24.704;2022-11-15T01:38:36;3.60;99.90
45715;DHT22;31430;61.646;24.704;2022-11-15T01:41:02;3.60;99.90
45715;DHT22;31430;61.646;24.704;2022-11-15T01:48:31;3.60;99.90
45715;DHT22;31430;61.646;24.704;2022-11-15T01:51:00;3.50;99.90
45715;DHT22;31430;61.646;24.704;2022-11-15T01:53:26;3.50;99.90
45715;DHT22;31430;61.646;24.704;2022-11-15T01:55:53;3.40;99.90
45715;DHT22;31430;61.646;24.704;2022-11-15T01:58:19;3.40;99.90
45715;DHT22;31430;61.646;24.704;2022-11-15T02:00:45;3.30;99.90
45715;DHT22;31430;61.646;24.704;2022-11-15T02:03:13;3.30;99.90
45715;DHT22;31430;61.646;24.704;2022-11-15T02:05:38;3.30;99.90
45715;DHT22;31430;61.646;24.704;2022-11-15T02:08:06;3.30;99.90
45715;DHT22;31430;61.646;24.704;2022-11-15T02:10:32;3.20;99.90
45715;DHT22;31430;61.646;24.704;2022-11-15T02:12:57;3.20;99.90
45715;DHT22;31430;61.646;24.704;2022-11-15T02:15:29;3.20;99.90
45715;DHT22;31430;61.646;24.704;2022-11-15T02:18:17;3.20;99.90
45715;DHT22;31430;61.646;24.704;2022-11-15T02:21:03;3.20;99.90
45715;DHT22;31430;61.646;24.704;2022-11-15T02:23:44;3.10;99.90
45715;DHT22;31430;61.646;24.704;2022-11-15T02:26:28;3.00;99.90
45715;DHT22;31430;61.646;24.704;2022-11-15T02:32:05;2.90;99.90
45715;DHT22;31430;61.646;24.704;2022-11-15T02:34:45;2.90;99.90
45715;DHT22;31430;61.646;24.704;2022-11-15T02:37:16;2.90;99.90
45715;DHT22;31430;61.646;24.704;2022-11-15T02:42:36;2.80;99.90
45715;DHT22;31430;61.646;24.704;2022-11-15T02:45:29;2.80;99.90
45715;DHT22;31430;61.646;24.704;2022-11-15T02:47:59;2.80;99.90
45715;DHT22;31430;61.646;24.704;2022-11-15T02:50:29;2.70;99.90
45715;DHT22;31430;61.646;24.704;2022-11-15T02:52:55;2.70;99.90
45715;DHT22;31430;61.646;24.704;2022-11-15T02:55:25;2.70;99.90
45715;DHT22;31430;61.646;24.704;2022-11-15T02:57:56;2.70;99.90
45715;DHT22;31430;61.646;24.704;2022-11-15T03:00:23;2.70;99.90
45715;DHT22;31430;61.646;24.704;2022-11-15T03:05:44;2.60;99.90
45715;DHT22;31430;61.646;24.704;2022-11-15T03:08:22;2.60;99.90
45715;DHT22;31430;61.646;24.704;2022-11-15T03:11:02;2.60;99.90
45715;DHT22;31430;61.646;24.704;2022-11-15T03:19:04;2.60;99.90
45715;DHT22;31430;61.646;24.704;2022-11-15T03:21:30;2.50;99.90
45715;DHT22;31430;61.646;24.704;2022-11-15T03:23:59;2.50;99.90
45715;DHT22;31430;61.646;24.704;2022-11-15T03:26:29;2.40;99.90
45715;DHT22;31430;61.646;24.704;2022-11-15T03:28:58;2.40;99.90
45715;DHT22;31430;61.646;24.704;2022-11-15T03:31:28;2.40;99.90
45715;DHT22;31430;61.646;24.704;2022-11-15T03:34:35;2.30;99.90
45715;DHT22;31430;61.646;24.704;2022-11-15T03:37:04;2.30;99.90
45715;DHT22;31430;61.646;24.704;2022-11-15T03:39:29;2.30;99.90
45715;DHT22;31430;61.646;24.704;2022-11-15T03:47:45;2.30;99.90
45715;DHT22;31430;61.646;24.704;2022-11-15T03:50:15;2.20;99.90
45715;DHT22;31430;61.646;24.704;2022-11-15T03:52:42;2.20;99.90
45715;DHT22;31430;61.646;24.704;2022-11-15T03:55:12;2.20;99.90
45715;DHT22;31430;61.646;24.704;2022-11-15T03:57:38;2.20;99.90
45715;DHT22;31430;61.646;24.704;2022-11-15T04:00:04;2.20;99.90
45715;DHT22;31430;61.646;24.704;2022-11-15T04:02:30;2.20;99.90
45715;DHT22;31430;61.646;24.704;2022-11-15T04:04:56;2.20;99.90
45715;DHT22;31430;61.646;24.704;2022-11-15T04:07:21;2.20;99.90
45715;DHT22;31430;61.646;24.704;2022-11-15T04:09:47;2.20;99.90
45715;DHT22;31430;61.646;24.704;2022-11-15T04:12:39;2.20;99.90
45715;DHT22;31430;61.646;24.704;2022-11-15T04:15:10;2.20;99.90
45715;DHT22;31430;61.646;24.704;2022-11-15T04:17:42;2.20;99.90
45715;DHT22;31430;61.646;24.704;2022-11-15T04:20:19;2.20;99.90
45715;DHT22;31430;61.646;24.704;2022-11-15T04:23:13;2.20;99.90
45715;DHT22;31430;61.646;24.704;2022-11-15T04:26:01;2.20;99.90
45715;DHT22;31430;61.646;24.704;2022-11-15T04:28:27;2.20;99.90
45715;DHT22;31430;61.646;24.704;2022-11-15T04:30:53;2.20;99.90
45715;DHT22;31430;61.646;24.704;2022-11-15T04:33:18;2.20;99.90
45715;DHT22;31430;61.646;24.704;2022-11-15T04:35:44;2.10;99.90
45715;DHT22;31430;61.646;24.704;2022-11-15T04:38:29;2.10;99.90
45715;DHT22;31430;61.646;24.704;2022-11-15T04:40:55;2.10;99.90
45715;DHT22;31430;61.646;24.704;2022-11-15T04:43:21;2.00;99.90
45715;DHT22;31430;61.646;24.704;2022-11-15T04:45:46;2.00;99.90
45715;DHT22;31430;61.646;24.704;2022-11-15T04:48:12;2.10;99.90
45715;DHT22;31430;61.646;24.704;2022-11-15T04:50:37;2.00;99.90
45715;DHT22;31430;61.646;24.704;2022-11-15T04:53:03;2.00;99.90
45715;DHT22;31430;61.646;24.704;2022-11-15T04:55:28;2.00;99.90
45715;DHT22;31430;61.646;24.704;2022-11-15T04:57:58;2.00;99.90
45715;DHT22;31430;61.646;24.704;2022-11-15T05:00:24;2.00;99.90
45715;DHT22;31430;61.646;24.704;2022-11-15T05:02:49;2.00;99.90
45715;DHT22;31430;61.646;24.704;2022-11-15T05:05:34;2.10;99.90
45715;DHT22;31430;61.646;24.704;2022-11-15T05:08:00;2.00;99.90
45715;DHT22;31430;61.646;24.704;2022-11-15T05:10:25;2.00;99.90
45715;DHT22;31430;61.646;24.704;2022-11-15T05:12:51;2.00;99.90
45715;DHT22;31430;61.646;24.704;2022-11-15T05:15:17;2.00;99.90
45715;DHT22;31430;61.646;24.704;2022-11-15T05:17:42;2.00;99.90
45715;DHT22;31430;61.646;24.704;2022-11-15T05:20:08;2.00;99.90
45715;DHT22;31430;61.646;24.704;2022-11-15T05:22:34;2.00;99.90
45715;DHT22;31430;61.646;24.704;2022-11-15T05:24:59;2.00;99.90
45715;DHT22;31430;61.646;24.704;2022-11-15T05:27:25;1.90;99.90
45715;DHT22;31430;61.646;24.704;2022-11-15T05:29:51;1.90;99.90
45715;DHT22;31430;61.646;24.704;2022-11-15T05:32:16;2.00;99.90
45715;DHT22;31430;61.646;24.704;2022-11-15T05:34:43;2.00;99.90
45715;DHT22;31430;61.646;24.704;2022-11-15T05:37:09;2.00;99.90
45715;DHT22;31430;61.646;24.704;2022-11-15T05:39:35;2.00;99.90
45715;DHT22;31430;61.646;24.704;2022-11-15T05:42:09;2.00;99.90
45715;DHT22;31430;61.646;24.704;2022-11-15T05:44:36;2.00;99.90
45715;DHT22;31430;61.646;24.704;2022-11-15T05:47:04;2.00;99.90
45715;DHT22;31430;61.646;24.704;2022-11-15T05:49:35;2.00;99.90
45715;DHT22;31430;61.646;24.704;2022-11-15T05:52:03;2.10;99.90
45715;DHT22;31430;61.646;24.704;2022-11-15T05:54:31;2.10;99.90
45715;DHT22;31430;61.646;24.704;2022-11-15T05:56:58;2.10;99.90
45715;DHT22;31430;61.646;24.704;2022-11-15T05:59:24;2.10;99.90
45715;DHT22;31430;61.646;24.704;2022-11-15T06:01:49;2.10;99.90
45715;DHT22;31430;61.646;24.704;2022-11-15T06:04:15;2.00;99.90
45715;DHT22;31430;61.646;24.704;2022-11-15T06:06:40;2.00;99.90
45715;DHT22;31430;61.646;24.704;2022-11-15T06:09:06;2.10;99.90
45715;DHT22;31430;61.646;24.704;2022-11-15T06:11:32;2.10;99.90
45715;DHT22;31430;61.646;24.704;2022-11-15T06:13:57;2.10;99.90
45715;DHT22;31430;61.646;24.704;2022-11-15T06:16:23;2.10;99.90
45715;DHT22;31430;61.646;24.704;2022-11-15T06:18:48;2.10;99.90
45715;DHT22;31430;61.646;24.704;2022-11-15T06:21:14;2.10;99.90
45715;DHT22;31430;61.646;24.704;2022-11-15T06:23:40;2.10;99.90
45715;DHT22;31430;61.646;24.704;2022-11-15T06:26:05;2.10;99.90
45715;DHT22;31430;61.646;24.704;2022-11-15T06:28:32;2.10;99.90
45715;DHT22;31430;61.646;24.704;2022-11-15T06:31:11;2.10;99.90
45715;DHT22;31430;61.646;24.704;2022-11-15T06:33:40;2.10;99.90
45715;DHT22;31430;61.646;24.704;2022-11-15T06:36:08;2.00;99.90
45715;DHT22;31430;61.646;24.704;2022-11-15T06:38:34;2.10;99.90
45715;DHT22;31430;61.646;24.704;2022-11-15T06:41:08;2.10;99.90
45715;DHT22;31430;61.646;24.704;2022-11-15T06:43:34;2.10;99.90
45715;DHT22;31430;61.646;24.704;2022-11-15T06:46:01;2.00;99.90
45715;DHT22;31430;61.646;24.704;2022-11-15T06:48:28;2.00;99.90
45715;DHT22;31430;61.646;24.704;2022-11-15T06:50:55;2.00;99.90
45715;DHT22;31430;61.646;24.704;2022-11-15T06:53:22;2.00;99.90
45715;DHT22;31430;61.646;24.704;2022-11-15T06:55:48;2.00;99.90
45715;DHT22;31430;61.646;24.704;2022-11-15T06:58:14;2.00;99.90
45715;DHT22;31430;61.646;24.704;2022-11-15T07:00:39;2.00;99.90
45715;DHT22;31430;61.646;24.704;2022-11-15T07:03:05;2.00;99.90
45715;DHT22;31430;61.646;24.704;2022-11-15T07:05:31;1.90;99.90
45715;DHT22;31430;61.646;24.704;2022-11-15T07:07:58;1.90;99.90
45715;DHT22;31430;61.646;24.704;2022-11-15T07:10:24;1.90;99.90
45715;DHT22;31430;61.646;24.704;2022-11-15T07:12:54;1.90;99.90
45715;DHT22;31430;61.646;24.704;2022-11-15T07:15:22;1.90;99.90
45715;DHT22;31430;61.646;24.704;2022-11-15T07:17:48;1.90;99.90
45715;DHT22;31430;61.646;24.704;2022-11-15T07:20:14;1.90;99.90
45715;DHT22;31430;61.646;24.704;2022-11-15T07:22:41;1.90;99.90
45715;DHT22;31430;61.646;24.704;2022-11-15T07:25:07;1.90;99.90
45715;DHT22;31430;61.646;24.704;2022-11-15T07:27:33;1.90;99.90
45715;DHT22;31430;61.646;24.704;2022-11-15T07:29:58;1.90;99.90
45715;DHT22;31430;61.646;24.704;2022-11-15T07:32:24;1.80;99.90
45715;DHT22;31430;61.646;24.704;2022-11-15T07:34:49;1.80;99.90
45715;DHT22;31430;61.646;24.704;2022-11-15T07:37:15;1.90;99.90
45715;DHT22;31430;61.646;24.704;2022-11-15T07:39:42;1.90;99.90
45715;DHT22;31430;61.646;24.704;2022-11-15T07:42:08;1.90;99.90
45715;DHT22;31430;61.646;24.704;2022-11-15T07:44:52;1.90;99.90
45715;DHT22;31430;61.646;24.704;2022-11-15T07:47:18;2.00;99.90
45715;DHT22;31430;61.646;24.704;2022-11-15T07:49:44;1.90;99.90
45715;DHT22;31430;61.646;24.704;2022-11-15T07:52:11;2.00;99.90
45715;DHT22;31430;61.646;24.704;2022-11-15T07:54:37;1.90;99.90
45715;DHT22;31430;61.646;24.704;2022-11-15T07:57:02;1.90;99.90
45715;DHT22;31430;61.646;24.704;2022-11-15T07:59:28;1.80;99.90
45715;DHT22;31430;61.646;24.704;2022-11-15T08:01:54;1.80;99.90
45715;DHT22;31430;61.646;24.704;2022-11-15T08:04:19;1.80;99.90
45715;DHT22;31430;61.646;24.704;2022-11-15T08:06:45;1.80;99.90
45715;DHT22;31430;61.646;24.704;2022-11-15T08:09:11;1.80;99.90
45715;DHT22;31430;61.646;24.704;2022-11-15T08:11:36;1.70;99.90
45715;DHT22;31430;61.646;24.704;2022-11-15T08:14:02;1.70;99.90
45715;DHT22;31430;61.646;24.704;2022-11-15T08:16:28;1.60;99.90
45715;DHT22;31430;61.646;24.704;2022-11-15T08:18:53;1.60;99.90
45715;DHT22;31430;61.646;24.704;2022-11-15T08:21:19;1.60;99.90
45715;DHT22;31430;61.646;24.704;2022-11-15T08:23:45;1.70;99.90
45715;DHT22;31430;61.646;24.704;2022-11-15T08:26:11;1.60;99.90
45715;DHT22;31430;61.646;24.704;2022-11-15T08:28:37;1.60;99.90
45715;DHT22;31430;61.646;24.704;2022-11-15T08:31:04;1.70;99.90
45715;DHT22;31430;61.646;24.704;2022-11-15T08:33:30;1.70;99.90
45715;DHT22;31430;61.646;24.704;2022-11-15T08:36:00;1.70;99.90
45715;DHT22;31430;61.646;24.704;2022-11-15T08:38:26;1.70;99.90
45715;DHT22;31430;61.646;24.704;2022-11-15T08:41:01;1.70;99.90
45715;DHT22;31430;61.646;24.704;2022-11-15T08:43:27;1.70;99.90
45715;DHT22;31430;61.646;24.704;2022-11-15T08:45:56;1.70;99.90
45715;DHT22;31430;61.646;24.704;2022-11-15T08:48:22;1.70;99.90
45715;DHT22;31430;61.646;24.704;2022-11-15T08:50:47;1.80;99.90
45715;DHT22;31430;61.646;24.704;2022-11-15T08:53:13;1.80;99.90
45715;DHT22;31430;61.646;24.704;2022-11-15T08:55:40;1.80;99.90
45715;DHT22;31430;61.646;24.704;2022-11-15T08:58:06;1.80;99.90
45715;DHT22;31430;61.646;24.704;2022-11-15T09:00:32;1.90;99.90
45715;DHT22;31430;61.646;24.704;2022-11-15T09:02:58;1.90;99.90
45715;DHT22;31430;61.646;24.704;2022-11-15T09:05:25;1.90;99.90
45715;DHT22;31430;61.646;24.704;2022-11-15T09:07:54;1.90;99.90
45715;DHT22;31430;61.646;24.704;2022-11-15T09:10:20;1.90;99.90
45715;DHT22;31430;61.646;24.704;2022-11-15T09:12:46;1.90;99.90
45715;DHT22;31430;61.646;24.704;2022-11-15T09:15:14;1.90;99.90
45715;DHT22;31430;61.646;24.704;2022-11-15T09:17:41;1.80;99.90
45715;DHT22;31430;61.646;24.704;2022-11-15T09:20:06;1.80;99.90
45715;DHT22;31430;61.646;24.704;2022-11-15T09:22:32;1.80;99.90
45715;DHT22;31430;61.646;24.704;2022-11-15T09:24:59;1.70;99.90
45715;DHT22;31430;61.646;24.704;2022-11-15T09:27:28;1.70;99.90
45715;DHT22;31430;61.646;24.704;2022-11-15T09:29:53;1.70;99.90
45715;DHT22;31430;61.646;24.704;2022-11-15T09:32:19;1.60;99.90
45715;DHT22;31430;61.646;24.704;2022-11-15T09:34:44;1.60;99.90
45715;DHT22;31430;61.646;24.704;2022-11-15T09:37:10;1.60;99.90
45715;DHT22;31430;61.646;24.704;2022-11-15T09:39:37;1.70;99.90
45715;DHT22;31430;61.646;24.704;2022-11-15T09:44:42;1.90;99.90
45715;DHT22;31430;61.646;24.704;2022-11-15T09:49:40;1.90;99.90
45715;DHT22;31430;61.646;24.704;2022-11-15T09:52:06;1.80;99.90
45715;DHT22;31430;61.646;24.704;2022-11-15T09:54:38;1.90;99.90
45715;DHT22;31430;61.646;24.704;2022-11-15T09:57:30;1.90;99.90
45715;DHT22;31430;61.646;24.704;2022-11-15T10:05:16;1.80;99.90
45715;DHT22;31430;61.646;24.704;2022-11-15T10:08:09;1.90;99.90
45715;DHT22;31430;61.646;24.704;2022-11-15T10:10:44;1.90;99.90
45715;DHT22;31430;61.646;24.704;2022-11-15T10:13:31;1.90;99.90
45715;DHT22;31430;61.646;24.704;2022-11-15T10:16:28;1.90;99.90
45715;DHT22;31430;61.646;24.704;2022-11-15T10:24:39;1.70;99.90
45715;DHT22;31430;61.646;24.704;2022-11-15T10:27:12;1.60;99.90
45715;DHT22;31430;61.646;24.704;2022-11-15T10:29:44;1.60;99.90
45715;DHT22;31430;61.646;24.704;2022-11-15T10:32:12;1.60;99.90
45715;DHT22;31430;61.646;24.704;2022-11-15T10:34:38;1.70;99.90
45715;DHT22;31430;61.646;24.704;2022-11-15T10:37:03;1.70;99.90
45715;DHT22;31430;61.646;24.704;2022-11-15T10:39:29;1.60;99.90
45715;DHT22;31430;61.646;24.704;2022-11-15T10:41:55;1.60;99.90
45715;DHT22;31430;61.646;24.704;2022-11-15T10:44:31;1.60;99.90
45715;DHT22;31430;61.646;24.704;2022-11-15T10:47:24;1.60;99.90
45715;DHT22;31430;61.646;24.704;2022-11-15T10:50:05;1.60;99.90
45715;DHT22;31430;61.646;24.704;2022-11-15T10:52:34;1.50;99.90
45715;DHT22;31430;61.646;24.704;2022-11-15T10:57:38;1.50;99.90
45715;DHT22;31430;61.646;24.704;2022-11-15T11:00:13;1.40;99.90
45715;DHT22;31430;61.646;24.704;2022-11-15T11:03:27;1.50;99.90
45715;DHT22;31430;61.646;24.704;2022-11-15T11:06:04;1.40;99.90
45715;DHT22;31430;61.646;24.704;2022-11-15T11:08:30;1.40;99.90
45715;DHT22;31430;61.646;24.704;2022-11-15T11:11:01;1.30;99.90
45715;DHT22;31430;61.646;24.704;2022-11-15T11:19:02;1.40;99.90
45715;DHT22;31430;61.646;24.704;2022-11-15T11:22:01;1.40;99.90
45715;DHT22;31430;61.646;24.704;2022-11-15T11:24:38;1.40;99.90
45715;DHT22;31430;61.646;24.704;2022-11-15T11:27:13;1.30;99.90
45715;DHT22;31430;61.646;24.704;2022-11-15T11:30:03;1.30;99.90
45715;DHT22;31430;61.646;24.704;2022-11-15T11:35:20;1.30;99.90
45715;DHT22;31430;61.646;24.704;2022-11-15T11:37:56;1.30;99.90
45715;DHT22;31430;61.646;24.704;2022-11-15T11:40:30;1.30;99.90
45715;DHT22;31430;61.646;24.704;2022-11-15T11:48:48;1.30;99.90
45715;DHT22;31430;61.646;24.704;2022-11-15T11:51:24;1.20;99.90
45715;DHT22;31430;61.646;24.704;2022-11-15T11:53:57;1.30;99.90
45715;DHT22;31430;61.646;24.704;2022-11-15T11:56:27;1.30;99.90
45715;DHT22;31430;61.646;24.704;2022-11-15T11:58:57;1.40;99.90
45715;DHT22;31430;61.646;24.704;2022-11-15T12:01:37;1.40;99.90
45715;DHT22;31430;61.646;24.704;2022-11-15T12:04:18;1.50;99.90
45715;DHT22;31430;61.646;24.704;2022-11-15T12:06:49;1.50;99.90
45715;DHT22;31430;61.646;24.704;2022-11-15T12:09:35;1.30;99.90
45715;DHT22;31430;61.646;24.704;2022-11-15T12:15:02;1.30;99.90
45715;DHT22;31430;61.646;24.704;2022-11-15T12:17:31;1.20;99.90
45715;DHT22;31430;61.646;24.704;2022-11-15T12:20:22;1.20;99.90
45715;DHT22;31430;61.646;24.704;2022-11-15T12:22:59;1.10;99.90
45715;DHT22;31430;61.646;24.704;2022-11-15T12:28:17;1.00;99.90
45715;DHT22;31430;61.646;24.704;2022-11-15T12:30:49;1.10;99.90
45715;DHT22;31430;61.646;24.704;2022-11-15T12:33:34;1.10;99.90
45715;DHT22;31430;61.646;24.704;2022-11-15T12:36:09;1.10;99.90
45715;DHT22;31430;61.646;24.704;2022-11-15T12:38:59;1.00;99.90
45715;DHT22;31430;61.646;24.704;2022-11-15T12:41:33;1.10;99.90
45715;DHT22;31430;61.646;24.704;2022-11-15T12:44:00;1.10;99.90
45715;DHT22;31430;61.646;24.704;2022-11-15T12:51:21;1.00;99.90
45715;DHT22;31430;61.646;24.704;2022-11-15T12:53:47;1.00;99.90
45715;DHT22;31430;61.646;24.704;2022-11-15T12:58:58;0.90;99.90
45715;DHT22;31430;61.646;24.704;2022-11-15T13:28:43;0.70;99.90
45715;DHT22;31430;61.646;24.704;2022-11-15T13:33:47;0.70;99.90
45715;DHT22;31430;61.646;24.704;2022-11-15T13:36:18;0.70;99.90
45715;DHT22;31430;61.646;24.704;2022-11-15T13:38:45;0.60;99.90
45715;DHT22;31430;61.646;24.704;2022-11-15T13:41:21;0.60;99.90
45715;DHT22;31430;61.646;24.704;2022-11-15T13:43:48;0.60;99.90
45715;DHT22;31430;61.646;24.704;2022-11-15T13:46:17;0.50;99.90
45715;DHT22;31430;61.646;24.704;2022-11-15T13:48:45;0.50;99.90
45715;DHT22;31430;61.646;24.704;2022-11-15T13:53:47;0.60;99.90
45715;DHT22;31430;61.646;24.704;2022-11-15T13:56:16;0.50;99.90
45715;DHT22;31430;61.646;24.704;2022-11-15T13:58:42;0.60;99.90
45715;DHT22;31430;61.646;24.704;2022-11-15T14:01:14;0.60;99.90
45715;DHT22;31430;61.646;24.704;2022-11-15T14:03:47;0.60;99.90
45715;DHT22;31430;61.646;24.704;2022-11-15T14:06:16;0.60;99.90
45715;DHT22;31430;61.646;24.704;2022-11-15T14:09:00;0.60;99.90
45715;DHT22;31430;61.646;24.704;2022-11-15T14:11:26;0.60;99.90
45715;DHT22;31430;61.646;24.704;2022-11-15T14:14:10;0.60;99.90
45715;DHT22;31430;61.646;24.704;2022-11-15T14:16:45;0.50;99.90
45715;DHT22;31430;61.646;24.704;2022-11-15T14:22:14;0.50;99.90
45715;DHT22;31430;61.646;24.704;2022-11-15T14:24:42;0.50;99.90
45715;DHT22;31430;61.646;24.704;2022-11-15T14:27:27;0.50;99.90
45715;DHT22;31430;61.646;24.704;2022-11-15T14:29:54;0.50;99.90
45715;DHT22;31430;61.646;24.704;2022-11-15T14:32:25;0.40;99.90
45715;DHT22;31430;61.646;24.704;2022-11-15T14:35:02;0.50;99.90
45715;DHT22;31430;61.646;24.704;2022-11-15T14:37:32;0.50;99.90
45715;DHT22;31430;61.646;24.704;2022-11-15T14:40:01;0.50;99.90
45715;DHT22;31430;61.646;24.704;2022-11-15T14:42:27;0.50;99.90
45715;DHT22;31430;61.646;24.704;2022-11-15T14:44:56;0.50;99.90
45715;DHT22;31430;61.646;24.704;2022-11-15T14:47:22;0.60;99.90
45715;DHT22;31430;61.646;24.704;2022-11-15T14:49:47;0.50;99.90
45715;DHT22;31430;61.646;24.704;2022-11-15T14:52:26;0.50;99.90
45715;DHT22;31430;61.646;24.704;2022-11-15T14:54:54;0.50;99.90
45715;DHT22;31430;61.646;24.704;2022-11-15T14:57:20;0.50;99.90
45715;DHT22;31430;61.646;24.704;2022-11-15T14:59:45;0.50;99.90
45715;DHT22;31430;61.646;24.704;2022-11-15T15:02:25;0.50;99.90
45715;DHT22;31430;61.646;24.704;2022-11-15T15:04:52;0.50;99.90
45715;DHT22;31430;61.646;24.704;2022-11-15T15:07:19;0.40;99.90
45715;DHT22;31430;61.646;24.704;2022-11-15T15:09:45;0.50;99.90
45715;DHT22;31430;61.646;24.704;2022-11-15T15:12:20;0.40;99.90
45715;DHT22;31430;61.646;24.704;2022-11-15T15:14:47;0.50;99.90
45715;DHT22;31430;61.646;24.704;2022-11-15T15:17:13;0.40;99.90
45715;DHT22;31430;61.646;24.704;2022-11-15T15:19:39;0.40;99.90
45715;DHT22;31430;61.646;24.704;2022-11-15T15:22:05;0.40;99.90
45715;DHT22;31430;61.646;24.704;2022-11-15T15:24:31;0.30;99.90
45715;DHT22;31430;61.646;24.704;2022-11-15T15:26:57;0.40;99.90
45715;DHT22;31430;61.646;24.704;2022-11-15T15:29:22;0.40;99.90
45715;DHT22;31430;61.646;24.704;2022-11-15T15:31:48;0.40;99.90
45715;DHT22;31430;61.646;24.704;2022-11-15T15:34:13;0.30;99.90
45715;DHT22;31430;61.646;24.704;2022-11-15T15:36:39;0.20;99.90
45715;DHT22;31430;61.646;24.704;2022-11-15T15:39:05;0.20;99.90
45715;DHT22;31430;61.646;24.704;2022-11-15T15:41:30;0.20;99.90
45715;DHT22;31430;61.646;24.704;2022-11-15T15:43:56;0.20;99.90
45715;DHT22;31430;61.646;24.704;2022-11-15T15:46:21;0.20;99.90
45715;DHT22;31430;61.646;24.704;2022-11-15T15:48:47;0.10;99.90
45715;DHT22;31430;61.646;24.704;2022-11-15T15:51:13;0.10;99.90
45715;DHT22;31430;61.646;24.704;2022-11-15T15:53:39;0.10;99.90
45715;DHT22;31430;61.646;24.704;2022-11-15T15:56:05;0.10;99.90
45715;DHT22;31430;61.646;24.704;2022-11-15T15:58:33;0.10;99.90
45715;DHT22;31430;61.646;24.704;2022-11-15T16:00:59;0.10;99.90
45715;DHT22;31430;61.646;24.704;2022-11-15T16:03:24;0.10;99.90
45715;DHT22;31430;61.646;24.704;2022-11-15T16:05:50;0.10;99.90
45715;DHT22;31430;61.646;24.704;2022-11-15T16:08:21;0.10;99.90
45715;DHT22;31430;61.646;24.704;2022-11-15T16:10:47;0.10;99.90
45715;DHT22;31430;61.646;24.704;2022-11-15T16:13:13;0.10;99.90
45715;DHT22;31430;61.646;24.704;2022-11-15T16:15:39;0.20;99.90
45715;DHT22;31430;61.646;24.704;2022-11-15T16:18:05;0.10;99.90
45715;DHT22;31430;61.646;24.704;2022-11-15T16:20:49;0.00;99.90
45715;DHT22;31430;61.646;24.704;2022-11-15T16:23:18;0.10;99.90
45715;DHT22;31430;61.646;24.704;2022-11-15T16:25:53;-0.10;99.90
45715;DHT22;31430;61.646;24.704;2022-11-15T16:28:31;-0.10;99.90
45715;DHT22;31430;61.646;24.704;2022-11-15T16:31:11;0.00;99.90
45715;DHT22;31430;61.646;24.704;2022-11-15T16:33:38;0.00;99.90
45715;DHT22;31430;61.646;24.704;2022-11-15T16:36:05;-0.10;99.90
45715;DHT22;31430;61.646;24.704;2022-11-15T16:38:32;-0.20;99.90
45715;DHT22;31430;61.646;24.704;2022-11-15T16:40:57;-0.10;99.90
45715;DHT22;31430;61.646;24.704;2022-11-15T16:43:23;-0.20;99.90
45715;DHT22;31430;61.646;24.704;2022-11-15T16:45:49;-0.10;99.90
45715;DHT22;31430;61.646;24.704;2022-11-15T16:48:26;-0.10;99.90
45715;DHT22;31430;61.646;24.704;2022-11-15T16:50:56;-0.20;99.90
45715;DHT22;31430;61.646;24.704;2022-11-15T16:53:23;-0.10;99.90
45715;DHT22;31430;61.646;24.704;2022-11-15T16:55:49;-0.10;99.90
45715;DHT22;31430;61.646;24.704;2022-11-15T16:58:14;-0.10;99.90
45715;DHT22;31430;61.646;24.704;2022-11-15T17:00:41;-0.10;99.90
45715;DHT22;31430;61.646;24.704;2022-11-15T17:03:07;-0.10;99.90
45715;DHT22;31430;61.646;24.704;2022-11-15T17:05:32;-0.10;99.90
45715;DHT22;31430;61.646;24.704;2022-11-15T17:07:58;-0.10;99.90
45715;DHT22;31430;61.646;24.704;2022-11-15T17:10:25;-0.10;99.90
45715;DHT22;31430;61.646;24.704;2022-11-15T17:12:51;-0.10;99.90
45715;DHT22;31430;61.646;24.704;2022-11-15T17:15:18;-0.10;99.90
45715;DHT22;31430;61.646;24.704;2022-11-15T17:17:44;-0.10;99.90
45715;DHT22;31430;61.646;24.704;2022-11-15T17:20:16;-0.10;99.90
45715;DHT22;31430;61.646;24.704;2022-11-15T17:22:42;-0.10;99.90
45715;DHT22;31430;61.646;24.704;2022-11-15T17:25:08;-0.20;99.90
45715;DHT22;31430;61.646;24.704;2022-11-15T17:27:34;-0.20;99.90
45715;DHT22;31430;61.646;24.704;2022-11-15T17:30:00;-0.30;99.90